createdAt,value
2022-09-27T00:00:32.903Z,11.38
2022-09-27T00:01:35.115Z,11.39
2022-09-27T00:02:37.380Z,11.40
2022-09-27T00:03:39.846Z,11.40
2022-09-27T00:04:42.006Z,11.40
2022-09-27T00:05:44.149Z,11.41
2022-09-27T00:06:49.144Z,11.41
2022-09-27T00:07:51.661Z,11.41
2022-09-27T00:08:54.286Z,11.41
2022-09-27T00:09:56.499Z,11.42
2022-09-27T00:11:00.957Z,11.41
2022-09-27T00:12:03.527Z,11.41
2022-09-27T00:13:05.721Z,11.41
2022-09-27T00:14:08.767Z,11.43
2022-09-27T00:15:11.662Z,11.42
2022-09-27T00:16:13.909Z,11.42
2022-09-27T00:17:16.118Z,11.44
2022-09-27T00:18:27.436Z,11.44
2022-09-27T00:19:29.609Z,11.44
2022-09-27T00:20:31.751Z,11.45
2022-09-27T00:21:34.213Z,11.47
2022-09-27T00:22:36.846Z,11.48
2022-09-27T00:23:40.037Z,11.50
2022-09-27T00:24:42.171Z,11.50
2022-09-27T00:25:55.293Z,11.53
2022-09-27T00:26:57.487Z,11.52
2022-09-27T00:27:59.770Z,11.52
2022-09-27T00:29:01.972Z,11.55
2022-09-27T00:30:04.474Z,11.57
2022-09-27T00:31:29.845Z,11.59
2022-09-27T00:32:32.261Z,11.60
2022-09-27T00:33:34.425Z,11.62
2022-09-27T00:34:36.942Z,11.63
2022-09-27T00:35:40.646Z,11.65
2022-09-27T00:36:42.794Z,11.67
2022-09-27T00:37:48.501Z,11.70
2022-09-27T00:38:50.788Z,11.72
2022-09-27T00:39:53.111Z,11.73
2022-09-27T00:41:01.189Z,11.74
2022-09-27T00:42:03.390Z,11.77
2022-09-27T00:43:16.945Z,11.79
2022-09-27T00:44:24.912Z,11.82
2022-09-27T00:45:27.136Z,11.83
2022-09-27T00:46:48.000Z,11.86
2022-09-27T00:47:56.635Z,11.88
2022-09-27T00:49:08.341Z,11.91
2022-09-27T00:50:29.817Z,11.93
2022-09-27T00:51:34.954Z,11.96
2022-09-27T00:53:01.679Z,11.96
2022-09-27T00:54:05.742Z,12.00
2022-09-27T00:55:20.770Z,12.01
2022-09-27T00:56:30.569Z,12.03
2022-09-27T00:57:35.759Z,12.05
2022-09-27T00:58:52.977Z,12.07
2022-09-27T01:00:02.158Z,12.09
2022-09-27T01:01:10.710Z,12.10
2022-09-27T01:02:13.385Z,12.12
2022-09-27T01:03:25.653Z,12.13
2022-09-27T01:04:30.847Z,12.16
2022-09-27T01:05:33.033Z,12.16
2022-09-27T01:06:35.711Z,12.15
2022-09-27T01:07:38.925Z,12.17
2022-09-27T01:08:41.270Z,12.17
2022-09-27T01:09:43.542Z,12.18
2022-09-27T01:10:59.976Z,12.18
2022-09-27T01:12:25.808Z,12.21
2022-09-27T01:13:38.587Z,12.23
2022-09-27T01:15:26.258Z,12.24
2022-09-27T01:16:37.348Z,12.27
2022-09-27T01:18:03.996Z,12.28
2022-09-27T01:19:29.949Z,12.29
2022-09-27T01:21:01.627Z,12.29
2022-09-27T01:22:13.444Z,12.31
2022-09-27T01:23:36.489Z,12.32
2022-09-27T01:24:51.956Z,12.33
2022-09-27T01:26:21.872Z,12.33
2022-09-27T01:27:39.001Z,12.34
2022-09-27T01:29:18.599Z,12.35
2022-09-27T01:30:22.414Z,12.35
2022-09-27T01:31:34.232Z,12.36
2022-09-27T01:33:17.334Z,12.33
2022-09-27T01:34:43.839Z,12.37
2022-09-27T01:36:00.914Z,12.37
2022-09-27T01:37:25.425Z,12.37
2022-09-27T01:38:37.689Z,12.37
2022-09-27T01:39:57.955Z,12.39
2022-09-27T01:41:23.855Z,12.39
2022-09-27T01:43:00.584Z,12.39
2022-09-27T01:44:27.637Z,12.39
2022-09-27T01:45:46.023Z,12.39
2022-09-27T01:46:58.994Z,12.39
2022-09-27T01:48:26.234Z,12.39
2022-09-27T01:49:59.184Z,12.39
2022-09-27T01:51:17.305Z,12.40
2022-09-27T01:52:27.752Z,12.40
2022-09-27T01:53:41.175Z,12.40
2022-09-27T01:55:05.706Z,12.40
2022-09-27T01:56:39.477Z,12.39
2022-09-27T01:57:57.872Z,12.40
2022-09-27T01:59:15.606Z,12.40
2022-09-27T02:00:24.481Z,12.40
2022-09-27T02:01:31.639Z,12.39
2022-09-27T02:02:40.955Z,12.41
2022-09-27T02:04:15.708Z,12.41
2022-09-27T02:05:45.619Z,12.39
2022-09-27T02:07:15.615Z,12.38
2022-09-27T02:08:30.477Z,12.40
2022-09-27T02:09:40.805Z,12.40
2022-09-27T02:10:56.607Z,12.39
2022-09-27T02:12:06.257Z,12.40
2022-09-27T02:13:23.214Z,12.39
2022-09-27T02:14:54.813Z,12.39
2022-09-27T02:16:14.990Z,12.39
2022-09-27T02:17:31.128Z,12.38
2022-09-27T02:18:46.440Z,12.39
2022-09-27T02:19:54.705Z,12.40
2022-09-27T02:21:07.888Z,12.40
2022-09-27T02:22:28.587Z,12.40
2022-09-27T02:23:45.223Z,12.41
2022-09-27T02:24:57.971Z,12.41
2022-09-27T02:26:16.931Z,12.42
2022-09-27T02:27:30.266Z,12.41
2022-09-27T02:28:48.391Z,12.42
2022-09-27T02:30:06.458Z,12.43
2022-09-27T02:31:10.288Z,12.43
2022-09-27T02:32:13.460Z,12.43
2022-09-27T02:33:16.109Z,12.43
2022-09-27T02:34:23.536Z,12.44
2022-09-27T02:35:31.584Z,12.43
2022-09-27T02:36:33.820Z,12.43
2022-09-27T02:37:35.990Z,12.43
2022-09-27T02:38:38.205Z,12.44
2022-09-27T02:39:40.737Z,12.44
2022-09-27T02:40:47.453Z,12.44
2022-09-27T02:41:50.242Z,12.44
2022-09-27T02:42:53.517Z,12.43
2022-09-27T02:44:00.495Z,12.41
2022-09-27T02:45:06.399Z,12.42
2022-09-27T02:46:28.967Z,12.42
2022-09-27T02:48:08.697Z,12.42
2022-09-27T02:49:48.146Z,12.42
2022-09-27T02:51:30.914Z,12.41
2022-09-27T02:52:53.348Z,12.41
2022-09-27T02:54:22.022Z,12.40
2022-09-27T02:56:25.839Z,12.40
2022-09-27T02:58:12.515Z,12.39
2022-09-27T02:59:50.167Z,12.39
2022-09-27T03:01:02.762Z,12.41
2022-09-27T03:03:03.024Z,12.39
2022-09-27T03:04:31.377Z,12.34
2022-09-27T03:05:49.563Z,12.36
2022-09-27T03:06:56.952Z,12.35
2022-09-27T03:07:59.343Z,12.36
2022-09-27T03:09:01.511Z,12.35
2022-09-27T03:10:05.692Z,12.34
2022-09-27T03:11:08.112Z,12.33
2022-09-27T03:12:10.889Z,12.33
2022-09-27T03:13:13.648Z,12.33
2022-09-27T03:14:17.481Z,12.31
2022-09-27T03:15:35.600Z,12.30
2022-09-27T03:16:40.076Z,12.31
2022-09-27T03:18:17.391Z,12.30
2022-09-27T03:19:22.093Z,12.30
2022-09-27T03:20:47.079Z,12.30
2022-09-27T03:21:54.788Z,12.30
2022-09-27T03:22:57.026Z,12.31
2022-09-27T03:23:59.171Z,12.29
2022-09-27T03:25:04.369Z,12.28
2022-09-27T03:26:10.745Z,12.27
2022-09-27T03:27:15.498Z,12.25
2022-09-27T03:28:18.206Z,12.24
2022-09-27T03:29:20.722Z,12.23
2022-09-27T03:30:27.801Z,12.22
2022-09-27T03:31:30.647Z,12.22
2022-09-27T03:32:51.717Z,12.21
2022-09-27T03:34:12.105Z,12.19
2022-09-27T03:35:14.523Z,12.19
2022-09-27T03:36:16.660Z,12.18
2022-09-27T03:37:22.154Z,12.19
2022-09-27T03:38:24.389Z,12.18
2022-09-27T03:39:27.421Z,12.17
2022-09-27T03:40:29.724Z,12.15
2022-09-27T03:41:32.231Z,12.15
2022-09-27T03:42:34.432Z,12.14
2022-09-27T03:43:36.637Z,12.13
2022-09-27T03:44:39.854Z,12.12
2022-09-27T03:45:45.427Z,12.12
2022-09-27T03:46:47.642Z,12.11
2022-09-27T03:47:49.865Z,12.10
2022-09-27T03:48:52.219Z,12.10
2022-09-27T03:49:54.403Z,12.08
2022-09-27T03:50:57.372Z,12.08
2022-09-27T03:51:59.841Z,12.07
2022-09-27T03:53:02.022Z,12.06
2022-09-27T03:54:04.336Z,12.05
2022-09-27T03:55:07.172Z,12.06
2022-09-27T03:56:10.322Z,12.03
2022-09-27T03:57:12.844Z,12.03
2022-09-27T03:58:15.662Z,12.02
2022-09-27T03:59:18.074Z,12.01
2022-09-27T04:00:41.287Z,12.00
2022-09-27T04:01:44.689Z,11.99
2022-09-27T04:03:07.992Z,11.98
2022-09-27T04:04:25.074Z,11.96
2022-09-27T04:05:29.057Z,11.94
2022-09-27T04:06:41.677Z,11.94
2022-09-27T04:07:48.391Z,11.93
2022-09-27T04:08:53.071Z,11.91
2022-09-27T04:09:57.346Z,11.91
2022-09-27T04:10:59.632Z,11.89
2022-09-27T04:12:02.446Z,11.89
2022-09-27T04:13:05.969Z,11.88
2022-09-27T04:14:16.270Z,11.87
2022-09-27T04:15:39.603Z,11.84
2022-09-27T04:17:19.283Z,11.83
2022-09-27T04:18:44.615Z,11.81
2022-09-27T04:20:12.847Z,11.79
2022-09-27T04:21:18.333Z,11.78
2022-09-27T04:22:25.879Z,11.77
2022-09-27T04:23:30.102Z,11.76
2022-09-27T04:24:33.101Z,11.75
2022-09-27T04:25:58.768Z,11.74
2022-09-27T04:27:23.796Z,11.72
2022-09-27T04:28:28.112Z,11.71
2022-09-27T04:29:30.306Z,11.68
2022-09-27T04:30:37.789Z,11.69
2022-09-27T04:31:49.078Z,11.67
2022-09-27T04:33:06.685Z,11.66
2022-09-27T04:34:53.692Z,11.65
2022-09-27T04:36:17.675Z,11.64
2022-09-27T04:37:36.626Z,11.64
2022-09-27T04:38:38.940Z,11.63
2022-09-27T04:39:42.757Z,11.62
2022-09-27T04:40:45.662Z,11.61
2022-09-27T04:41:47.971Z,11.59
2022-09-27T04:42:51.249Z,11.59
2022-09-27T04:43:58.998Z,11.59
2022-09-27T04:45:02.554Z,11.58
2022-09-27T04:46:05.056Z,11.58
2022-09-27T04:48:29.904Z,11.56
2022-09-27T04:49:32.440Z,11.56
2022-09-27T04:50:36.495Z,11.55
2022-09-27T04:51:39.535Z,11.55
2022-09-27T04:52:41.866Z,11.55
2022-09-27T04:53:45.041Z,11.54
2022-09-27T04:54:47.901Z,11.54
2022-09-27T04:55:52.426Z,11.54
2022-09-27T04:56:54.580Z,11.52
2022-09-27T04:57:56.845Z,11.54
2022-09-27T04:58:59.413Z,11.52
2022-09-27T05:00:01.949Z,11.53
2022-09-27T05:01:05.472Z,11.51
2022-09-27T05:02:29.585Z,11.52
2022-09-27T05:03:51.278Z,11.51
2022-09-27T05:04:59.379Z,11.50
2022-09-27T05:06:06.984Z,11.50
2022-09-27T05:07:09.401Z,11.49
2022-09-27T05:08:18.963Z,11.49
2022-09-27T05:09:48.645Z,11.48
2022-09-27T05:10:51.234Z,11.47
2022-09-27T05:11:53.414Z,11.47
2022-09-27T05:13:23.270Z,11.47
2022-09-27T05:15:50.433Z,11.45
2022-09-27T05:17:13.897Z,11.46
2022-09-27T05:18:19.342Z,11.46
2022-09-27T05:19:41.558Z,11.45
2022-09-27T05:21:02.361Z,11.44
2022-09-27T05:22:24.499Z,11.45
2022-09-27T05:23:27.391Z,11.44
2022-09-27T05:24:30.481Z,11.44
2022-09-27T05:25:33.151Z,11.43
2022-09-27T05:26:35.321Z,11.43
2022-09-27T05:27:37.579Z,11.42
2022-09-27T05:28:43.162Z,11.43
2022-09-27T05:29:45.991Z,11.42
2022-09-27T05:30:55.166Z,11.42
2022-09-27T05:31:57.373Z,11.42
2022-09-27T05:32:59.542Z,11.41
2022-09-27T05:34:01.663Z,11.41
2022-09-27T05:35:14.071Z,11.42
2022-09-27T05:36:16.691Z,11.42
2022-09-27T05:37:19.400Z,11.42
2022-09-27T05:38:23.557Z,11.43
2022-09-27T05:39:28.013Z,11.42
2022-09-27T05:40:41.147Z,11.43
2022-09-27T05:41:46.655Z,11.44
2022-09-27T05:42:50.519Z,11.43
2022-09-27T05:43:52.800Z,11.44
2022-09-27T05:44:54.937Z,11.44
2022-09-27T05:45:57.182Z,11.45
2022-09-27T05:47:07.273Z,11.44
2022-09-27T05:48:10.685Z,11.43
2022-09-27T05:49:20.826Z,11.44
2022-09-27T05:50:24.888Z,11.45
2022-09-27T05:51:27.102Z,11.44
2022-09-27T05:52:29.751Z,11.44
2022-09-27T05:53:32.534Z,11.45
2022-09-27T05:54:35.901Z,11.45
2022-09-27T05:55:38.029Z,11.47
2022-09-27T05:56:41.005Z,11.45
2022-09-27T05:58:00.072Z,11.46
2022-09-27T05:59:14.820Z,11.46
2022-09-27T06:00:52.639Z,11.47
2022-09-27T06:02:13.283Z,11.46
2022-09-27T06:03:35.039Z,11.48
2022-09-27T06:05:15.462Z,11.48
2022-09-27T06:06:36.884Z,11.49
2022-09-27T06:07:40.771Z,11.49
2022-09-27T06:08:53.488Z,11.50
2022-09-27T06:09:59.078Z,11.50
2022-09-27T06:11:06.296Z,11.50
2022-09-27T06:12:11.930Z,11.51
2022-09-27T06:13:16.001Z,11.51
2022-09-27T06:14:18.847Z,11.52
2022-09-27T06:15:31.994Z,11.54
2022-09-27T06:16:34.323Z,11.54
2022-09-27T06:17:37.304Z,11.55
2022-09-27T06:18:47.047Z,11.56
2022-09-27T06:19:49.638Z,11.56
2022-09-27T06:20:52.249Z,11.56
2022-09-27T06:21:54.397Z,11.58
2022-09-27T06:23:04.106Z,11.60
2022-09-27T06:24:07.327Z,11.60
2022-09-27T06:25:11.258Z,11.60
2022-09-27T06:26:27.455Z,11.63
2022-09-27T06:27:50.226Z,11.63
2022-09-27T06:29:00.342Z,11.64
2022-09-27T06:30:02.931Z,11.66
2022-09-27T06:31:18.102Z,11.66
2022-09-27T06:32:27.322Z,11.68
2022-09-27T06:33:50.199Z,11.69
2022-09-27T06:34:53.098Z,11.70
2022-09-27T06:35:55.714Z,11.72
2022-09-27T06:36:58.404Z,11.73
2022-09-27T06:38:10.295Z,11.74
2022-09-27T06:39:16.686Z,11.74
2022-09-27T06:40:34.158Z,11.77
2022-09-27T06:41:57.609Z,11.78
2022-09-27T06:43:09.749Z,11.80
2022-09-27T06:44:30.669Z,11.81
2022-09-27T06:46:11.535Z,11.83
2022-09-27T06:47:39.997Z,11.85
2022-09-27T06:49:22.295Z,11.88
2022-09-27T06:50:24.609Z,11.90
2022-09-27T06:51:26.938Z,11.91
2022-09-27T06:52:29.103Z,11.91
2022-09-27T06:53:31.701Z,11.92
2022-09-27T06:54:34.001Z,11.94
2022-09-27T06:55:36.459Z,11.94
2022-09-27T06:56:38.660Z,11.97
2022-09-27T06:57:59.417Z,11.98
2022-09-27T06:59:19.908Z,11.99
2022-09-27T07:00:43.084Z,12.02
2022-09-27T07:02:03.640Z,12.04
2022-09-27T07:03:40.215Z,12.06
2022-09-27T07:05:07.300Z,12.10
2022-09-27T07:06:30.419Z,12.11
2022-09-27T07:07:44.471Z,12.13
2022-09-27T07:08:51.408Z,12.15
2022-09-27T07:09:53.856Z,12.16
2022-09-27T07:11:01.374Z,12.18
2022-09-27T07:12:03.624Z,12.19
2022-09-27T07:13:09.716Z,12.21
2022-09-27T07:14:12.388Z,12.23
2022-09-27T07:15:15.556Z,12.25
2022-09-27T07:16:19.001Z,12.25
2022-09-27T07:17:21.191Z,12.27
2022-09-27T07:18:25.332Z,12.29
2022-09-27T07:19:28.529Z,12.31
2022-09-27T07:20:32.511Z,12.31
2022-09-27T07:21:34.751Z,12.34
2022-09-27T07:22:45.917Z,12.35
2022-09-27T07:23:49.300Z,12.38
2022-09-27T07:24:51.545Z,12.40
2022-09-27T07:25:53.836Z,12.40
2022-09-27T07:26:56.088Z,12.41
2022-09-27T07:28:03.582Z,12.43
2022-09-27T07:29:05.872Z,12.44
2022-09-27T07:30:09.789Z,12.46
2022-09-27T07:31:12.728Z,12.49
2022-09-27T07:32:16.214Z,12.49
2022-09-27T07:33:18.410Z,12.51
2022-09-27T07:34:20.756Z,12.53
2022-09-27T07:35:23.175Z,12.55
2022-09-27T07:36:25.336Z,12.57
2022-09-27T07:37:27.558Z,12.59
2022-09-27T07:38:30.395Z,12.62
2022-09-27T07:39:32.684Z,12.62
2022-09-27T07:40:38.079Z,12.65
2022-09-27T07:41:43.556Z,12.68
2022-09-27T07:42:47.304Z,12.70
2022-09-27T07:43:50.064Z,12.72
2022-09-27T07:44:53.730Z,12.74
2022-09-27T07:46:22.262Z,12.76
2022-09-27T07:47:42.866Z,12.78
2022-09-27T07:49:10.942Z,12.82
2022-09-27T07:50:30.275Z,12.82
2022-09-27T07:51:36.723Z,12.84
2022-09-27T07:52:57.888Z,12.87
2022-09-27T07:54:20.071Z,12.87
2022-09-27T07:55:35.022Z,12.88
2022-09-27T07:56:49.123Z,12.88
2022-09-27T07:58:02.553Z,12.89
2022-09-27T07:59:04.790Z,12.91
2022-09-27T08:00:12.686Z,12.91
2022-09-27T08:01:35.384Z,12.92
2022-09-27T08:02:37.730Z,12.93
2022-09-27T08:03:40.546Z,12.95
2022-09-27T08:04:44.099Z,12.95
2022-09-27T08:05:47.753Z,12.97
2022-09-27T08:06:50.316Z,12.98
2022-09-27T08:07:56.869Z,12.99
2022-09-27T08:09:00.784Z,13.00
2022-09-27T08:10:04.606Z,13.03
2022-09-27T08:11:14.752Z,13.04
2022-09-27T08:12:17.361Z,13.05
2022-09-27T08:13:20.655Z,13.04
2022-09-27T08:14:24.996Z,13.06
2022-09-27T08:15:28.726Z,13.07
2022-09-27T08:16:35.096Z,13.08
2022-09-27T08:17:52.266Z,13.09
2022-09-27T08:19:05.257Z,13.11
2022-09-27T08:20:25.817Z,13.12
2022-09-27T08:21:43.183Z,13.14
2022-09-27T08:22:58.031Z,13.13
2022-09-27T08:24:04.824Z,13.16
2022-09-27T08:25:14.446Z,13.16
2022-09-27T08:26:36.830Z,13.18
2022-09-27T08:27:56.033Z,13.18
2022-09-27T08:29:18.490Z,13.21
2022-09-27T08:30:27.860Z,13.22
2022-09-27T08:31:30.133Z,13.25
2022-09-27T08:32:33.248Z,13.27
2022-09-27T08:33:50.991Z,13.29
2022-09-27T08:34:53.215Z,13.31
2022-09-27T08:35:57.670Z,13.33
2022-09-27T08:37:00.318Z,13.35
2022-09-27T08:38:04.279Z,13.38
2022-09-27T08:39:06.452Z,13.40
2022-09-27T08:40:18.129Z,13.42
2022-09-27T08:41:39.981Z,13.44
2022-09-27T08:42:59.267Z,13.48
2022-09-27T08:44:52.543Z,13.50
2022-09-27T08:46:13.665Z,13.56
2022-09-27T08:47:27.165Z,13.60
2022-09-27T08:48:32.501Z,13.63
2022-09-27T08:49:47.596Z,13.67
2022-09-27T08:50:49.801Z,13.71
2022-09-27T08:51:54.065Z,13.73
2022-09-27T08:53:14.194Z,13.78
2022-09-27T08:54:24.889Z,13.81
2022-09-27T08:55:37.416Z,13.84
2022-09-27T08:56:45.458Z,13.88
2022-09-27T08:57:52.748Z,13.92
2022-09-27T08:59:05.609Z,13.96
2022-09-27T09:00:12.311Z,13.99
2022-09-27T09:01:19.219Z,14.03
2022-09-27T09:02:28.249Z,14.06
2022-09-27T09:03:52.610Z,14.11
2022-09-27T09:05:00.588Z,14.13
2022-09-27T09:06:08.829Z,14.16
2022-09-27T09:07:32.560Z,14.21
2022-09-27T09:09:11.709Z,14.23
2022-09-27T09:10:58.914Z,14.24
2022-09-27T09:12:28.736Z,14.27
2022-09-27T09:13:39.914Z,14.24
2022-09-27T09:14:52.446Z,14.25
2022-09-27T09:16:03.686Z,14.25
2022-09-27T09:17:26.455Z,14.24
2022-09-27T09:19:19.749Z,14.25
2022-09-27T09:20:54.899Z,14.25
2022-09-27T09:22:12.252Z,14.29
2022-09-27T09:23:36.834Z,14.31
2022-09-27T09:25:15.563Z,14.38
2022-09-27T09:26:21.509Z,14.44
2022-09-27T09:27:56.967Z,14.51
2022-09-27T09:29:22.002Z,14.61
2022-09-27T09:30:33.122Z,14.70
2022-09-27T09:31:58.209Z,14.79
2022-09-27T09:33:25.516Z,14.88
2022-09-27T09:34:49.476Z,14.98
2022-09-27T09:36:00.409Z,15.05
2022-09-27T09:37:16.751Z,15.12
2022-09-27T09:38:25.891Z,15.19
2022-09-27T09:39:39.612Z,15.26
2022-09-27T09:40:51.517Z,15.34
2022-09-27T09:42:04.579Z,15.42
2022-09-27T09:43:15.861Z,15.51
2022-09-27T09:44:25.833Z,15.60
2022-09-27T09:45:34.651Z,15.69
2022-09-27T09:46:44.915Z,15.76
2022-09-27T09:48:00.579Z,15.86
2022-09-27T09:49:29.662Z,15.98
2022-09-27T09:50:40.260Z,16.11
2022-09-27T09:51:47.843Z,16.18
2022-09-27T09:53:13.859Z,16.28
2022-09-27T09:54:33.597Z,16.38
2022-09-27T09:55:37.067Z,16.48
2022-09-27T09:57:12.913Z,16.57
2022-09-27T09:58:27.156Z,16.68
2022-09-27T09:59:41.265Z,16.75
2022-09-27T10:00:45.634Z,16.83
2022-09-27T10:01:48.568Z,16.89
2022-09-27T10:02:54.146Z,16.96
2022-09-27T10:03:57.301Z,17.04
2022-09-27T10:05:06.837Z,17.11
2022-09-27T10:06:12.152Z,17.20
2022-09-27T10:07:16.330Z,17.28
2022-09-27T10:08:24.326Z,17.37
2022-09-27T10:09:41.189Z,17.46
2022-09-27T10:11:21.535Z,17.54
2022-09-27T10:12:31.737Z,17.59
2022-09-27T10:13:36.487Z,17.65
2022-09-27T10:14:40.999Z,17.69
2022-09-27T10:15:48.710Z,17.70
2022-09-27T10:16:57.776Z,17.73
2022-09-27T10:18:00.481Z,17.75
2022-09-27T10:19:05.350Z,17.77
2022-09-27T10:20:08.304Z,17.77
2022-09-27T10:21:15.733Z,17.75
2022-09-27T10:22:36.967Z,17.73
2022-09-27T10:24:04.601Z,17.71
2022-09-27T10:25:55.182Z,17.66
2022-09-27T10:27:15.946Z,17.61
2022-09-27T10:28:33.130Z,17.60
2022-09-27T10:29:39.453Z,17.55
2022-09-27T10:30:56.387Z,17.49
2022-09-27T10:32:03.482Z,17.45
2022-09-27T10:33:19.885Z,17.40
2022-09-27T10:34:33.524Z,17.31
2022-09-27T10:35:45.343Z,17.26
2022-09-27T10:37:18.968Z,17.19
2022-09-27T10:38:40.336Z,17.11
2022-09-27T10:39:53.727Z,17.03
2022-09-27T10:41:15.752Z,16.98
2022-09-27T10:42:31.891Z,16.88
2022-09-27T10:43:35.871Z,16.81
2022-09-27T10:45:28.096Z,16.70
2022-09-27T10:46:34.708Z,16.62
2022-09-27T10:47:52.918Z,16.54
2022-09-27T10:49:34.251Z,16.45
2022-09-27T10:50:58.944Z,16.39
2022-09-27T10:52:22.362Z,16.29
2022-09-27T10:53:27.162Z,16.21
2022-09-27T10:54:38.041Z,16.16
2022-09-27T10:55:42.236Z,16.10
2022-09-27T10:56:44.546Z,16.07
2022-09-27T10:57:54.650Z,16.01
2022-09-27T10:59:00.034Z,15.92
2022-09-27T11:00:24.072Z,15.85
2022-09-27T11:01:38.641Z,15.79
2022-09-27T11:02:58.087Z,15.75
2022-09-27T11:04:03.138Z,15.74
2022-09-27T11:05:15.774Z,15.72
2022-09-27T11:06:22.982Z,15.68
2022-09-27T11:07:25.292Z,15.65
2022-09-27T11:08:35.473Z,15.63
2022-09-27T11:09:48.609Z,15.55
2022-09-27T11:11:06.673Z,15.52
2022-09-27T11:12:13.808Z,15.52
2022-09-27T11:13:20.340Z,15.52
2022-09-27T11:14:29.062Z,15.50
2022-09-27T11:15:33.730Z,15.47
2022-09-27T11:16:46.004Z,15.47
2022-09-27T11:17:54.599Z,15.45
2022-09-27T11:19:34.256Z,15.41
2022-09-27T11:20:47.424Z,15.41
2022-09-27T11:22:19.980Z,15.38
2022-09-27T11:23:39.730Z,15.36
2022-09-27T11:24:56.909Z,15.33
2022-09-27T11:26:44.874Z,15.27
2022-09-27T11:27:59.643Z,15.23
2022-09-27T11:29:35.804Z,15.20
2022-09-27T11:31:19.602Z,15.11
2022-09-27T11:32:43.457Z,15.08
2022-09-27T11:34:07.576Z,15.05
2022-09-27T11:35:45.196Z,15.00
2022-09-27T11:37:11.840Z,14.95
2022-09-27T11:38:53.083Z,14.90
2022-09-27T11:40:11.218Z,14.82
2022-09-27T11:41:41.243Z,14.79
2022-09-27T11:43:17.075Z,14.76
2022-09-27T11:44:32.557Z,14.70
2022-09-27T11:46:10.787Z,14.66
2022-09-27T11:47:50.965Z,14.61
2022-09-27T11:49:13.801Z,14.55
2022-09-27T11:50:25.866Z,14.52
2022-09-27T11:51:38.597Z,14.49
2022-09-27T11:52:43.420Z,14.47
2022-09-27T11:54:25.913Z,14.44
2022-09-27T11:55:39.946Z,14.40
2022-09-27T11:56:56.115Z,14.37
2022-09-27T11:58:08.855Z,14.35
2022-09-27T11:59:28.328Z,14.34
2022-09-27T12:00:51.001Z,14.32
2022-09-27T12:02:16.798Z,14.32
2022-09-27T12:03:40.041Z,14.32
2022-09-27T12:05:19.183Z,14.31
2022-09-27T12:06:51.140Z,14.35
2022-09-27T12:08:30.195Z,14.37
2022-09-27T12:09:39.208Z,14.36
2022-09-27T12:10:47.079Z,14.38
2022-09-27T12:11:57.426Z,14.40
2022-09-27T12:13:00.541Z,14.41
2022-09-27T12:14:11.564Z,14.43
2022-09-27T12:15:19.924Z,14.45
2022-09-27T12:16:26.326Z,14.47
2022-09-27T12:17:36.263Z,14.51
2022-09-27T12:18:41.100Z,14.52
2022-09-27T12:20:11.323Z,14.54
2022-09-27T12:21:21.451Z,14.57
2022-09-27T12:22:57.491Z,14.59
2022-09-27T12:24:06.698Z,14.62
2022-09-27T12:25:21.009Z,14.63
2022-09-27T12:26:43.429Z,14.66
2022-09-27T12:28:02.883Z,14.68
2022-09-27T12:29:39.723Z,14.70
2022-09-27T12:30:48.741Z,14.71
2022-09-27T12:32:02.164Z,14.72
2022-09-27T12:33:18.627Z,14.74
2022-09-27T12:34:46.398Z,14.75
2022-09-27T12:35:54.306Z,14.76
2022-09-27T12:37:02.961Z,14.77
2022-09-27T12:38:17.497Z,14.79
2022-09-27T12:39:25.806Z,14.81
2022-09-27T12:40:39.010Z,14.82
2022-09-27T12:41:54.736Z,14.86
2022-09-27T12:43:12.269Z,14.87
2022-09-27T12:44:38.697Z,14.91
2022-09-27T12:45:43.738Z,14.94
2022-09-27T12:46:52.686Z,14.96
2022-09-27T12:48:23.462Z,14.99
2022-09-27T12:49:57.612Z,15.02
2022-09-27T12:51:15.856Z,15.08
2022-09-27T12:52:25.695Z,15.09
2022-09-27T12:53:47.529Z,15.13
2022-09-27T12:55:27.360Z,15.17
2022-09-27T12:56:42.147Z,15.21
2022-09-27T12:58:07.988Z,15.21
2022-09-27T12:59:28.631Z,15.22
2022-09-27T13:00:41.902Z,15.24
2022-09-27T13:02:19.224Z,15.26
2022-09-27T13:03:50.317Z,15.29
2022-09-27T13:04:59.087Z,15.30
2022-09-27T13:06:26.382Z,15.32
2022-09-27T13:08:00.511Z,15.32
2022-09-27T13:09:40.144Z,15.33
2022-09-27T13:10:49.289Z,15.35
2022-09-27T13:12:14.512Z,15.34
2022-09-27T13:13:21.587Z,15.35
2022-09-27T13:14:27.550Z,15.33
2022-09-27T13:15:33.602Z,15.30
2022-09-27T13:16:46.564Z,15.28
2022-09-27T13:17:53.405Z,15.27
2022-09-27T13:19:26.499Z,15.25
2022-09-27T13:20:35.392Z,15.25
2022-09-27T13:21:51.768Z,15.23
2022-09-27T13:23:29.858Z,15.20
2022-09-27T13:24:51.517Z,15.19
2022-09-27T13:26:22.793Z,15.18
2022-09-27T13:27:33.052Z,15.17
2022-09-27T13:28:49.664Z,15.15
2022-09-27T13:30:43.686Z,15.12
2022-09-27T13:31:53.574Z,15.10
2022-09-27T13:33:09.629Z,15.09
2022-09-27T13:34:41.961Z,15.06
2022-09-27T13:36:16.563Z,15.03
2022-09-27T13:37:46.863Z,15.02
2022-09-27T13:39:06.247Z,15.00
2022-09-27T13:40:35.033Z,14.99
2022-09-27T13:42:07.326Z,14.97
2022-09-27T13:43:35.821Z,14.96
2022-09-27T13:45:03.776Z,14.96
2022-09-27T13:46:17.616Z,14.94
2022-09-27T13:47:40.129Z,14.91
2022-09-27T13:49:05.012Z,14.89
2022-09-27T13:50:56.762Z,14.90
2022-09-27T13:52:04.049Z,14.90
2022-09-27T13:53:30.709Z,14.87
2022-09-27T13:54:50.508Z,14.87
2022-09-27T13:55:53.993Z,14.85
2022-09-27T13:57:09.808Z,14.84
2022-09-27T13:58:43.247Z,14.83
2022-09-27T14:00:09.229Z,14.78
2022-09-27T14:01:33.270Z,14.80
2022-09-27T14:03:02.877Z,14.80
2022-09-27T14:04:17.539Z,14.78
2022-09-27T14:05:26.161Z,14.77
2022-09-27T14:06:36.234Z,14.76
2022-09-27T14:07:42.533Z,14.77
2022-09-27T14:08:52.870Z,14.76
2022-09-27T14:10:01.227Z,14.77
2022-09-27T14:11:16.996Z,14.77
2022-09-27T14:12:28.238Z,14.76
2022-09-27T14:13:32.663Z,14.74
2022-09-27T14:14:43.053Z,14.73
2022-09-27T14:15:46.600Z,14.73
2022-09-27T14:16:49.385Z,14.73
2022-09-27T14:17:53.476Z,14.72
2022-09-27T14:19:00.718Z,14.71
2022-09-27T14:20:31.658Z,14.70
2022-09-27T14:21:37.847Z,14.71
2022-09-27T14:22:54.678Z,14.70
2022-09-27T14:24:24.556Z,14.69
2022-09-27T14:25:28.004Z,14.69
2022-09-27T14:26:30.202Z,14.66
2022-09-27T14:27:37.336Z,14.66
2022-09-27T14:28:54.847Z,14.62
2022-09-27T14:30:18.287Z,14.60
2022-09-27T14:31:26.990Z,14.57
2022-09-27T14:32:58.553Z,14.56
2022-09-27T14:34:15.494Z,14.52
2022-09-27T14:35:45.057Z,14.49
2022-09-27T14:37:07.199Z,14.47
2022-09-27T14:38:37.033Z,14.42
2022-09-27T14:39:44.336Z,14.39
2022-09-27T14:41:07.401Z,14.38
2022-09-27T14:42:25.314Z,14.34
2022-09-27T14:43:29.365Z,14.32
2022-09-27T14:44:32.547Z,14.31
2022-09-27T14:45:40.396Z,14.30
2022-09-27T14:46:42.717Z,14.27
2022-09-27T14:47:47.373Z,14.24
2022-09-27T14:48:51.407Z,14.22
2022-09-27T14:49:57.448Z,14.20
2022-09-27T14:51:08.495Z,14.18
2022-09-27T14:52:40.763Z,14.15
2022-09-27T14:53:54.005Z,14.14
2022-09-27T14:55:02.713Z,14.11
2022-09-27T14:56:08.762Z,14.08
2022-09-27T14:57:17.114Z,14.06
2022-09-27T14:58:35.999Z,14.04
2022-09-27T14:59:44.672Z,14.01
2022-09-27T15:00:49.406Z,14.00
2022-09-27T15:01:52.933Z,13.96
2022-09-27T15:02:56.509Z,13.96
2022-09-27T15:04:06.393Z,13.92
2022-09-27T15:05:19.166Z,13.89
2022-09-27T15:06:21.810Z,13.86
2022-09-27T15:07:24.097Z,13.83
2022-09-27T15:08:36.080Z,13.81
2022-09-27T15:09:40.791Z,13.78
2022-09-27T15:10:44.752Z,13.77
2022-09-27T15:11:52.932Z,13.76
2022-09-27T15:13:00.013Z,13.73
2022-09-27T15:14:04.978Z,13.71
2022-09-27T15:15:07.884Z,13.70
2022-09-27T15:16:17.437Z,13.67
2022-09-27T15:17:21.467Z,13.64
2022-09-27T15:18:39.633Z,13.64
2022-09-27T15:19:57.566Z,13.60
2022-09-27T15:21:00.942Z,13.59
2022-09-27T15:22:24.081Z,13.58
2022-09-27T15:23:29.095Z,13.56
2022-09-27T15:24:45.576Z,13.54
2022-09-27T15:26:04.314Z,13.49
2022-09-27T15:27:22.740Z,13.48
2022-09-27T15:28:28.063Z,13.47
2022-09-27T15:29:30.236Z,13.44
2022-09-27T15:30:44.489Z,13.43
2022-09-27T15:31:58.051Z,13.40
2022-09-27T15:33:01.932Z,13.40
2022-09-27T15:34:07.355Z,13.38
2022-09-27T15:35:10.245Z,13.36
2022-09-27T15:36:15.894Z,13.33
2022-09-27T15:37:27.834Z,13.31
2022-09-27T15:38:35.737Z,13.29
2022-09-27T15:39:41.390Z,13.27
2022-09-27T15:40:43.537Z,13.24
2022-09-27T15:42:20.349Z,13.23
2022-09-27T15:43:32.783Z,13.21
2022-09-27T15:44:57.804Z,13.18
2022-09-27T15:46:03.616Z,13.16